sensor_id;sensor_type;location;lat;lon;timestamp;P1;durP1;ratioP1;P2;durP2;ratioP2
18473;SDS011;30265;52.408;13.500;2022-10-16T00:06:50;6.80;;;4.78;;
18473;SDS011;30265;52.408;13.500;2022-10-16T00:17:19;7.82;;;4.85;;
18473;SDS011;30265;52.408;13.500;2022-10-16T00:27:41;10.30;;;4.35;;
18473;SDS011;30265;52.408;13.500;2022-10-16T00:38:06;6.63;;;4.40;;
18473;SDS011;30265;52.408;13.500;2022-10-16T00:48:32;5.72;;;3.78;;
18473;SDS011;30265;52.408;13.500;2022-10-16T00:58:55;7.03;;;3.92;;
18473;SDS011;30265;52.408;13.500;2022-10-16T01:09:23;6.47;;;3.45;;
18473;SDS011;30265;52.408;13.500;2022-10-16T01:20:05;8.73;;;4.03;;
18473;SDS011;30265;52.408;13.500;2022-10-16T01:30:42;6.43;;;3.75;;
18473;SDS011;30265;52.408;13.500;2022-10-16T01:41:14;5.60;;;3.47;;
18473;SDS011;30265;52.408;13.500;2022-10-16T01:51:40;6.27;;;3.60;;
18473;SDS011;30265;52.408;13.500;2022-10-16T02:02:06;6.82;;;3.92;;
18473;SDS011;30265;52.408;13.500;2022-10-16T02:12:34;5.43;;;3.70;;
18473;SDS011;30265;52.408;13.500;2022-10-16T02:22:59;3.65;;;2.67;;
18473;SDS011;30265;52.408;13.500;2022-10-16T02:33:23;5.18;;;2.75;;
18473;SDS011;30265;52.408;13.500;2022-10-16T02:43:53;4.13;;;3.05;;
18473;SDS011;30265;52.408;13.500;2022-10-16T02:54:25;5.22;;;3.13;;
18473;SDS011;30265;52.408;13.500;2022-10-16T03:04:52;6.28;;;3.30;;
18473;SDS011;30265;52.408;13.500;2022-10-16T03:15:15;4.88;;;3.25;;
18473;SDS011;30265;52.408;13.500;2022-10-16T03:25:37;6.32;;;3.47;;
18473;SDS011;30265;52.408;13.500;2022-10-16T03:36:00;4.70;;;3.47;;
18473;SDS011;30265;52.408;13.500;2022-10-16T03:46:22;4.90;;;2.92;;
18473;SDS011;30265;52.408;13.500;2022-10-16T03:56:48;4.78;;;3.28;;
18473;SDS011;30265;52.408;13.500;2022-10-16T04:07:10;10.75;;;3.38;;
18473;SDS011;30265;52.408;13.500;2022-10-16T04:17:33;6.25;;;3.30;;
18473;SDS011;30265;52.408;13.500;2022-10-16T04:27:54;5.90;;;3.60;;
18473;SDS011;30265;52.408;13.500;2022-10-16T04:38:17;8.15;;;3.83;;
18473;SDS011;30265;52.408;13.500;2022-10-16T04:48:44;7.07;;;3.53;;
18473;SDS011;30265;52.408;13.500;2022-10-16T04:59:12;9.73;;;3.97;;
18473;SDS011;30265;52.408;13.500;2022-10-16T05:09:34;5.63;;;3.20;;
18473;SDS011;30265;52.408;13.500;2022-10-16T05:19:57;5.05;;;3.38;;
18473;SDS011;30265;52.408;13.500;2022-10-16T05:30:18;6.35;;;3.63;;
18473;SDS011;30265;52.408;13.500;2022-10-16T05:40:42;8.00;;;4.03;;
18473;SDS011;30265;52.408;13.500;2022-10-16T05:51:04;5.07;;;3.30;;
18473;SDS011;30265;52.408;13.500;2022-10-16T06:01:28;5.32;;;3.10;;
18473;SDS011;30265;52.408;13.500;2022-10-16T06:11:51;6.60;;;3.17;;
18473;SDS011;30265;52.408;13.500;2022-10-16T06:22:16;5.28;;;3.40;;
18473;SDS011;30265;52.408;13.500;2022-10-16T06:32:38;5.53;;;2.87;;
18473;SDS011;30265;52.408;13.500;2022-10-16T06:43:00;5.25;;;3.17;;
18473;SDS011;30265;52.408;13.500;2022-10-16T06:53:22;3.83;;;2.80;;
18473;SDS011;30265;52.408;13.500;2022-10-16T07:03:45;4.15;;;3.05;;
18473;SDS011;30265;52.408;13.500;2022-10-16T07:14:10;8.45;;;2.78;;
18473;SDS011;30265;52.408;13.500;2022-10-16T07:24:47;4.22;;;2.30;;
18473;SDS011;30265;52.408;13.500;2022-10-16T07:35:13;4.00;;;2.80;;
18473;SDS011;30265;52.408;13.500;2022-10-16T07:45:37;6.00;;;2.63;;
18473;SDS011;30265;52.408;13.500;2022-10-16T07:55:58;3.90;;;2.30;;
18473;SDS011;30265;52.408;13.500;2022-10-16T08:06:21;4.68;;;2.33;;
18473;SDS011;30265;52.408;13.500;2022-10-16T08:16:47;3.17;;;2.20;;
18473;SDS011;30265;52.408;13.500;2022-10-16T08:27:09;6.68;;;2.50;;
18473;SDS011;30265;52.408;13.500;2022-10-16T08:37:31;4.57;;;2.15;;
18473;SDS011;30265;52.408;13.500;2022-10-16T08:47:56;2.97;;;2.08;;
18473;SDS011;30265;52.408;13.500;2022-10-16T08:58:28;2.80;;;2.13;;
18473;SDS011;30265;52.408;13.500;2022-10-16T09:19:36;3.60;;;2.30;;
18473;SDS011;30265;52.408;13.500;2022-10-16T09:30:11;3.10;;;2.28;;
18473;SDS011;30265;52.408;13.500;2022-10-16T09:40:34;2.03;;;1.65;;
18473;SDS011;30265;52.408;13.500;2022-10-16T09:51:01;4.63;;;1.95;;
18473;SDS011;30265;52.408;13.500;2022-10-16T10:01:26;4.00;;;2.53;;
18473;SDS011;30265;52.408;13.500;2022-10-16T10:11:55;2.60;;;1.73;;
18473;SDS011;30265;52.408;13.500;2022-10-16T10:22:23;4.30;;;2.10;;
18473;SDS011;30265;52.408;13.500;2022-10-16T10:32:51;3.72;;;2.20;;
18473;SDS011;30265;52.408;13.500;2022-10-16T10:43:29;2.85;;;1.70;;
18473;SDS011;30265;52.408;13.500;2022-10-16T10:54:07;2.73;;;2.10;;
18473;SDS011;30265;52.408;13.500;2022-10-16T11:15:55;10.60;;;4.18;;
18473;SDS011;30265;52.408;13.500;2022-10-16T11:26:21;4.43;;;2.55;;
18473;SDS011;30265;52.408;13.500;2022-10-16T11:36:48;6.05;;;2.10;;
18473;SDS011;30265;52.408;13.500;2022-10-16T11:47:26;2.53;;;1.73;;
18473;SDS011;30265;52.408;13.500;2022-10-16T11:58:19;2.85;;;2.10;;
18473;SDS011;30265;52.408;13.500;2022-10-16T12:08:46;1.95;;;1.70;;
18473;SDS011;30265;52.408;13.500;2022-10-16T12:19:12;3.97;;;1.50;;
18473;SDS011;30265;52.408;13.500;2022-10-16T12:29:39;2.22;;;1.67;;
18473;SDS011;30265;52.408;13.500;2022-10-16T12:40:15;1.65;;;1.20;;
18473;SDS011;30265;52.408;13.500;2022-10-16T12:50:53;2.50;;;1.50;;
18473;SDS011;30265;52.408;13.500;2022-10-16T13:01:23;2.58;;;1.60;;
18473;SDS011;30265;52.408;13.500;2022-10-16T13:11:55;2.38;;;1.52;;
18473;SDS011;30265;52.408;13.500;2022-10-16T13:22:33;3.33;;;1.50;;
18473;SDS011;30265;52.408;13.500;2022-10-16T13:33:04;3.78;;;1.70;;
18473;SDS011;30265;52.408;13.500;2022-10-16T13:43:34;5.95;;;2.40;;
18473;SDS011;30265;52.408;13.500;2022-10-16T13:53:58;2.28;;;1.75;;
18473;SDS011;30265;52.408;13.500;2022-10-16T14:04:22;2.25;;;1.50;;
18473;SDS011;30265;52.408;13.500;2022-10-16T14:14:51;2.72;;;1.90;;
18473;SDS011;30265;52.408;13.500;2022-10-16T14:25:24;2.63;;;2.10;;
18473;SDS011;30265;52.408;13.500;2022-10-16T14:35:56;2.33;;;1.80;;
18473;SDS011;30265;52.408;13.500;2022-10-16T14:46:23;3.10;;;2.22;;
18473;SDS011;30265;52.408;13.500;2022-10-16T14:56:51;5.35;;;2.50;;
18473;SDS011;30265;52.408;13.500;2022-10-16T15:07:15;4.10;;;2.03;;
18473;SDS011;30265;52.408;13.500;2022-10-16T15:17:37;3.25;;;2.33;;
18473;SDS011;30265;52.408;13.500;2022-10-16T15:28:00;3.95;;;2.35;;
18473;SDS011;30265;52.408;13.500;2022-10-16T15:38:23;6.00;;;2.90;;
18473;SDS011;30265;52.408;13.500;2022-10-16T15:48:48;10.32;;;4.30;;
18473;SDS011;30265;52.408;13.500;2022-10-16T16:09:33;12.48;;;4.95;;
18473;SDS011;30265;52.408;13.500;2022-10-16T16:19:55;7.22;;;3.67;;
18473;SDS011;30265;52.408;13.500;2022-10-16T16:30:19;9.90;;;3.67;;
18473;SDS011;30265;52.408;13.500;2022-10-16T16:40:47;9.07;;;3.60;;
18473;SDS011;30265;52.408;13.500;2022-10-16T16:51:16;13.50;;;7.25;;
18473;SDS011;30265;52.408;13.500;2022-10-16T17:01:40;15.27;;;8.93;;
18473;SDS011;30265;52.408;13.500;2022-10-16T17:12:04;12.30;;;6.05;;
18473;SDS011;30265;52.408;13.500;2022-10-16T17:22:27;24.27;;;10.50;;
18473;SDS011;30265;52.408;13.500;2022-10-16T17:33:02;19.83;;;7.47;;
18473;SDS011;30265;52.408;13.500;2022-10-16T17:43:24;16.90;;;8.27;;
18473;SDS011;30265;52.408;13.500;2022-10-16T17:53:48;20.77;;;7.50;;
18473;SDS011;30265;52.408;13.500;2022-10-16T18:04:15;32.53;;;14.53;;
18473;SDS011;30265;52.408;13.500;2022-10-16T18:14:51;40.13;;;16.70;;
18473;SDS011;30265;52.408;13.500;2022-10-16T18:25:17;41.30;;;17.10;;
18473;SDS011;30265;52.408;13.500;2022-10-16T18:35:41;41.92;;;17.58;;
18473;SDS011;30265;52.408;13.500;2022-10-16T18:46:03;29.30;;;15.30;;
18473;SDS011;30265;52.408;13.500;2022-10-16T18:56:30;20.83;;;10.40;;
18473;SDS011;30265;52.408;13.500;2022-10-16T19:06:56;66.32;;;26.48;;
18473;SDS011;30265;52.408;13.500;2022-10-16T19:17:19;32.70;;;11.43;;
18473;SDS011;30265;52.408;13.500;2022-10-16T19:27:41;38.55;;;12.35;;
18473;SDS011;30265;52.408;13.500;2022-10-16T19:38:04;72.45;;;25.13;;
18473;SDS011;30265;52.408;13.500;2022-10-16T19:48:29;50.08;;;17.23;;
18473;SDS011;30265;52.408;13.500;2022-10-16T19:58:58;15.57;;;7.05;;
18473;SDS011;30265;52.408;13.500;2022-10-16T20:09:24;14.13;;;6.10;;
18473;SDS011;30265;52.408;13.500;2022-10-16T20:19:47;13.90;;;5.82;;
18473;SDS011;30265;52.408;13.500;2022-10-16T20:30:09;20.80;;;8.07;;
18473;SDS011;30265;52.408;13.500;2022-10-16T20:40:35;21.00;;;9.27;;
18473;SDS011;30265;52.408;13.500;2022-10-16T20:50:57;26.67;;;9.85;;
18473;SDS011;30265;52.408;13.500;2022-10-16T21:01:31;29.92;;;11.15;;
18473;SDS011;30265;52.408;13.500;2022-10-16T21:12:02;31.50;;;11.02;;
18473;SDS011;30265;52.408;13.500;2022-10-16T21:22:30;27.75;;;10.55;;
18473;SDS011;30265;52.408;13.500;2022-10-16T21:32:56;37.70;;;13.70;;
18473;SDS011;30265;52.408;13.500;2022-10-16T21:43:27;16.58;;;7.90;;
18473;SDS011;30265;52.408;13.500;2022-10-16T21:53:49;24.13;;;8.53;;
18473;SDS011;30265;52.408;13.500;2022-10-16T22:04:19;25.67;;;9.38;;
18473;SDS011;30265;52.408;13.500;2022-10-16T22:14:41;22.52;;;9.90;;
18473;SDS011;30265;52.408;13.500;2022-10-16T22:25:04;27.08;;;9.98;;
18473;SDS011;30265;52.408;13.500;2022-10-16T22:35:26;27.38;;;9.85;;
18473;SDS011;30265;52.408;13.500;2022-10-16T22:45:48;22.70;;;10.10;;
18473;SDS011;30265;52.408;13.500;2022-10-16T22:56:10;25.17;;;11.82;;
18473;SDS011;30265;52.408;13.500;2022-10-16T23:06:34;21.27;;;9.57;;
18473;SDS011;30265;52.408;13.500;2022-10-16T23:16:55;23.33;;;11.68;;
18473;SDS011;30265;52.408;13.500;2022-10-16T23:27:18;19.60;;;10.93;;
18473;SDS011;30265;52.408;13.500;2022-10-16T23:37:39;23.30;;;11.07;;
18473;SDS011;30265;52.408;13.500;2022-10-16T23:48:02;22.90;;;10.63;;
18473;SDS011;30265;52.408;13.500;2022-10-16T23:58:24;23.63;;;11.48;;
